Terminal Aerodrome Forecast
Issued by NWS

Home | Current Version | Previous Version | Text Only | Print | Product List | Glossary On
Versions: 1 2 3 4 5 6 7 8 9 10 11 12 13 14 15 16 17 18 19 20 21 22 23 24 25 26 27 28 29 30
000
FTUS44 KOUN 310529 CCA
TAFHBR
TAF COR
KHBR 310529Z 3106/0106 08010KT P6SM SCT250
      TEMPO 3106/3110 BKN016
     FM311300 08007KT P6SM FEW040 BKN100
      TEMPO 3115/3119 4SM -TSRA BKN040CB
     FM311900 09008KT P6SM SCT040 BKN100 BKN200=

USA.gov is the U.S. government's official web portal to all federal, state and local government web resources and services.